sensor_id;sensor_type;location;lat;lon;timestamp;pressure;altitude;pressure_sealevel;temperature;humidity
69842;BME280;57138;51.326;-0.068;2022-11-15T00:00:49;98727.50;;;8.87;90.60
69842;BME280;57138;51.326;-0.068;2022-11-15T00:03:21;98718.47;;;8.88;90.50
69842;BME280;57138;51.326;-0.068;2022-11-15T00:05:50;98722.97;;;8.88;90.30
69842;BME280;57138;51.326;-0.068;2022-11-15T00:08:15;98712.13;;;8.82;90.08
69842;BME280;57138;51.326;-0.068;2022-11-15T00:10:41;98715.63;;;8.83;89.91
69842;BME280;57138;51.326;-0.068;2022-11-15T00:13:10;98707.84;;;8.81;89.80
69842;BME280;57138;51.326;-0.068;2022-11-15T00:15:38;98706.22;;;8.80;90.26
69842;BME280;57138;51.326;-0.068;2022-11-15T00:18:05;98702.56;;;8.75;89.11
69842;BME280;57138;51.326;-0.068;2022-11-15T00:20:33;98696.19;;;8.76;89.42
69842;BME280;57138;51.326;-0.068;2022-11-15T00:22:59;98693.75;;;8.74;88.69
69842;BME280;57138;51.326;-0.068;2022-11-15T00:25:25;98691.50;;;8.71;89.10
69842;BME280;57138;51.326;-0.068;2022-11-15T00:27:55;98682.88;;;8.69;88.36
69842;BME280;57138;51.326;-0.068;2022-11-15T00:30:21;98685.78;;;8.68;88.42
69842;BME280;57138;51.326;-0.068;2022-11-15T00:32:46;98670.84;;;8.67;88.32
69842;BME280;57138;51.326;-0.068;2022-11-15T00:35:12;98670.41;;;8.70;88.49
69842;BME280;57138;51.326;-0.068;2022-11-15T00:37:37;98665.66;;;8.72;88.53
69842;BME280;57138;51.326;-0.068;2022-11-15T00:40:03;98665.66;;;8.72;88.44
69842;BME280;57138;51.326;-0.068;2022-11-15T00:42:29;98646.03;;;8.66;87.76
69842;BME280;57138;51.326;-0.068;2022-11-15T00:44:54;98655.00;;;8.72;88.18
69842;BME280;57138;51.326;-0.068;2022-11-15T00:47:21;98648.03;;;8.71;87.64
69842;BME280;57138;51.326;-0.068;2022-11-15T00:49:47;98654.59;;;8.75;87.04
69842;BME280;57138;51.326;-0.068;2022-11-15T00:52:12;98648.03;;;8.77;87.52
69842;BME280;57138;51.326;-0.068;2022-11-15T00:54:38;98643.50;;;8.78;87.08
69842;BME280;57138;51.326;-0.068;2022-11-15T00:57:03;98644.31;;;8.78;86.94
69842;BME280;57138;51.326;-0.068;2022-11-15T00:59:29;98632.84;;;8.78;87.23
69842;BME280;57138;51.326;-0.068;2022-11-15T01:01:55;98632.84;;;8.78;87.33
69842;BME280;57138;51.326;-0.068;2022-11-15T01:04:20;98636.94;;;8.80;87.06
69842;BME280;57138;51.326;-0.068;2022-11-15T01:06:46;98622.97;;;8.78;86.88
69842;BME280;57138;51.326;-0.068;2022-11-15T01:09:11;98623.81;;;8.79;86.84
69842;BME280;57138;51.326;-0.068;2022-11-15T01:11:37;98620.53;;;8.77;87.04
69842;BME280;57138;51.326;-0.068;2022-11-15T01:14:02;98615.19;;;8.77;87.24
69842;BME280;57138;51.326;-0.068;2022-11-15T01:16:28;98608.06;;;8.71;86.88
69842;BME280;57138;51.326;-0.068;2022-11-15T01:18:53;98598.47;;;8.70;87.29
69842;BME280;57138;51.326;-0.068;2022-11-15T01:21:19;98602.31;;;8.74;87.15
69842;BME280;57138;51.326;-0.068;2022-11-15T01:23:45;98603.34;;;8.73;87.56
69842;BME280;57138;51.326;-0.068;2022-11-15T01:26:13;98600.69;;;8.73;86.75
69842;BME280;57138;51.326;-0.068;2022-11-15T01:28:41;98599.66;;;8.74;87.30
69842;BME280;57138;51.326;-0.068;2022-11-15T01:31:11;98585.72;;;8.72;87.03
69842;BME280;57138;51.326;-0.068;2022-11-15T01:33:37;98581.22;;;8.72;86.81
69842;BME280;57138;51.326;-0.068;2022-11-15T01:36:04;98572.41;;;8.72;86.64
69842;BME280;57138;51.326;-0.068;2022-11-15T01:38:30;98562.19;;;8.69;86.90
69842;BME280;57138;51.326;-0.068;2022-11-15T01:40:55;98545.59;;;8.67;87.38
69842;BME280;57138;51.326;-0.068;2022-11-15T01:43:39;98552.94;;;8.71;86.86
69842;BME280;57138;51.326;-0.068;2022-11-15T01:46:13;98546.19;;;8.69;87.07
69842;BME280;57138;51.326;-0.068;2022-11-15T01:48:44;98544.56;;;8.68;87.30
69842;BME280;57138;51.326;-0.068;2022-11-15T01:51:11;98552.13;;;8.71;87.37
69842;BME280;57138;51.326;-0.068;2022-11-15T01:53:41;98550.50;;;8.70;87.91
69842;BME280;57138;51.326;-0.068;2022-11-15T01:56:11;98549.44;;;8.71;87.42
69842;BME280;57138;51.326;-0.068;2022-11-15T01:58:39;98541.31;;;8.66;87.65
69842;BME280;57138;51.326;-0.068;2022-11-15T02:01:05;98546.78;;;8.71;88.08
69842;BME280;57138;51.326;-0.068;2022-11-15T02:03:41;98542.72;;;8.68;87.69
69842;BME280;57138;51.326;-0.068;2022-11-15T02:06:10;98533.91;;;8.68;88.00
69842;BME280;57138;51.326;-0.068;2022-11-15T02:08:36;98525.91;;;8.68;87.75
69842;BME280;57138;51.326;-0.068;2022-11-15T02:11:04;98522.06;;;8.63;88.14
69842;BME280;57138;51.326;-0.068;2022-11-15T02:13:32;98521.44;;;8.61;87.96
69842;BME280;57138;51.326;-0.068;2022-11-15T02:18:41;98507.09;;;8.62;88.67
69842;BME280;57138;51.326;-0.068;2022-11-15T02:32:48;98470.25;;;8.59;89.04
69842;BME280;57138;51.326;-0.068;2022-11-15T02:35:39;98464.69;;;8.61;88.86
69842;BME280;57138;51.326;-0.068;2022-11-15T02:41:10;98448.72;;;8.61;88.83
69842;BME280;57138;51.326;-0.068;2022-11-15T02:43:48;98441.38;;;8.56;88.78
69842;BME280;57138;51.326;-0.068;2022-11-15T02:49:23;98435.25;;;8.56;89.23
69842;BME280;57138;51.326;-0.068;2022-11-15T02:51:52;98429.69;;;8.57;89.22
69842;BME280;57138;51.326;-0.068;2022-11-15T02:54:22;98425.97;;;8.58;89.41
69842;BME280;57138;51.326;-0.068;2022-11-15T02:56:48;98428.63;;;8.58;89.47
69842;BME280;57138;51.326;-0.068;2022-11-15T02:59:37;98424.94;;;8.59;89.81
69842;BME280;57138;51.326;-0.068;2022-11-15T03:02:36;98437.63;;;8.64;90.27
69842;BME280;57138;51.326;-0.068;2022-11-15T03:10:30;98408.09;;;8.66;90.34
69842;BME280;57138;51.326;-0.068;2022-11-15T03:13:06;98385.13;;;8.64;90.13
69842;BME280;57138;51.326;-0.068;2022-11-15T03:15:38;98388.25;;;8.61;90.80
69842;BME280;57138;51.326;-0.068;2022-11-15T03:18:33;98383.53;;;8.63;90.62
69842;BME280;57138;51.326;-0.068;2022-11-15T03:21:00;98377.16;;;8.64;91.20
69842;BME280;57138;51.326;-0.068;2022-11-15T03:23:28;98372.44;;;8.67;90.79
69842;BME280;57138;51.326;-0.068;2022-11-15T03:25:56;98371.38;;;8.68;91.05
69842;BME280;57138;51.326;-0.068;2022-11-15T03:28:27;98369.31;;;8.70;91.15
69842;BME280;57138;51.326;-0.068;2022-11-15T03:30:55;98369.91;;;8.72;91.56
69842;BME280;57138;51.326;-0.068;2022-11-15T03:33:21;98372.72;;;8.77;91.62
69842;BME280;57138;51.326;-0.068;2022-11-15T03:35:47;98363.91;;;8.76;91.46
69842;BME280;57138;51.326;-0.068;2022-11-15T03:38:24;98353.38;;;8.81;92.22
69842;BME280;57138;51.326;-0.068;2022-11-15T03:41:04;98339.03;;;8.82;92.92
69842;BME280;57138;51.326;-0.068;2022-11-15T03:43:45;98342.44;;;8.90;92.79
69842;BME280;57138;51.326;-0.068;2022-11-15T03:46:16;98337.25;;;8.95;92.94
69842;BME280;57138;51.326;-0.068;2022-11-15T03:48:49;98341.31;;;8.97;93.07
69842;BME280;57138;51.326;-0.068;2022-11-15T03:51:16;98330.06;;;8.95;93.23
69842;BME280;57138;51.326;-0.068;2022-11-15T03:53:42;98329.53;;;9.05;93.23
69842;BME280;57138;51.326;-0.068;2022-11-15T03:56:08;98331.72;;;9.08;93.54
69842;BME280;57138;51.326;-0.068;2022-11-15T03:58:33;98322.47;;;9.11;93.06
69842;BME280;57138;51.326;-0.068;2022-11-15T04:00:59;98317.28;;;9.16;93.31
69842;BME280;57138;51.326;-0.068;2022-11-15T04:03:24;98315.00;;;9.20;93.24
69842;BME280;57138;51.326;-0.068;2022-11-15T04:05:50;98307.22;;;9.18;93.20
69842;BME280;57138;51.326;-0.068;2022-11-15T04:08:15;98296.09;;;9.21;92.85
69842;BME280;57138;51.326;-0.068;2022-11-15T04:10:41;98288.69;;;9.23;92.79
69842;BME280;57138;51.326;-0.068;2022-11-15T04:13:06;98290.31;;;9.24;93.28
69842;BME280;57138;51.326;-0.068;2022-11-15T04:15:32;98286.59;;;9.25;93.27
69842;BME280;57138;51.326;-0.068;2022-11-15T04:17:57;98283.47;;;9.28;93.64
69842;BME280;57138;51.326;-0.068;2022-11-15T04:20:25;98272.13;;;9.33;93.91
69842;BME280;57138;51.326;-0.068;2022-11-15T04:26:01;98261.03;;;9.48;93.91
69842;BME280;57138;51.326;-0.068;2022-11-15T04:28:27;98256.84;;;9.52;93.50
69842;BME280;57138;51.326;-0.068;2022-11-15T04:30:52;98259.06;;;9.55;93.85
69842;BME280;57138;51.326;-0.068;2022-11-15T04:33:18;98248.38;;;9.55;93.37
69842;BME280;57138;51.326;-0.068;2022-11-15T04:35:44;98252.78;;;9.61;93.32
69842;BME280;57138;51.326;-0.068;2022-11-15T04:38:29;98248.16;;;9.68;93.58
69842;BME280;57138;51.326;-0.068;2022-11-15T04:40:54;98238.91;;;9.71;93.19
69842;BME280;57138;51.326;-0.068;2022-11-15T04:43:20;98234.47;;;9.77;93.00
69842;BME280;57138;51.326;-0.068;2022-11-15T04:45:46;98224.97;;;9.81;93.00
69842;BME280;57138;51.326;-0.068;2022-11-15T04:48:11;98218.84;;;9.80;92.73
69842;BME280;57138;51.326;-0.068;2022-11-15T04:50:37;98226.13;;;9.85;92.79
69842;BME280;57138;51.326;-0.068;2022-11-15T04:53:02;98235.28;;;9.89;92.52
69842;BME280;57138;51.326;-0.068;2022-11-15T04:55:27;98223.00;;;9.88;92.42
69842;BME280;57138;51.326;-0.068;2022-11-15T04:58:00;98214.75;;;9.89;92.07
69842;BME280;57138;51.326;-0.068;2022-11-15T05:00:28;98215.19;;;9.98;91.96
69842;BME280;57138;51.326;-0.068;2022-11-15T05:02:54;98217.16;;;10.03;91.75
69842;BME280;57138;51.326;-0.068;2022-11-15T05:05:38;98202.44;;;10.00;91.95
69842;BME280;57138;51.326;-0.068;2022-11-15T05:08:04;98204.38;;;10.05;91.66
69842;BME280;57138;51.326;-0.068;2022-11-15T05:10:29;98200.69;;;10.06;91.74
69842;BME280;57138;51.326;-0.068;2022-11-15T05:12:55;98186.75;;;10.04;91.71
69842;BME280;57138;51.326;-0.068;2022-11-15T05:15:20;98193.47;;;10.06;91.33
69842;BME280;57138;51.326;-0.068;2022-11-15T05:17:46;98181.28;;;10.11;91.57
69842;BME280;57138;51.326;-0.068;2022-11-15T05:20:12;98163.63;;;10.10;90.95
69842;BME280;57138;51.326;-0.068;2022-11-15T05:22:37;98175.94;;;10.11;90.94
69842;BME280;57138;51.326;-0.068;2022-11-15T05:25:04;98164.78;;;10.14;90.78
69842;BME280;57138;51.326;-0.068;2022-11-15T05:27:30;98163.16;;;10.13;89.87
69842;BME280;57138;51.326;-0.068;2022-11-15T05:29:55;98156.88;;;10.19;90.09
69842;BME280;57138;51.326;-0.068;2022-11-15T05:32:21;98148.31;;;10.17;90.00
69842;BME280;57138;51.326;-0.068;2022-11-15T05:34:47;98137.94;;;10.20;90.06
69842;BME280;57138;51.326;-0.068;2022-11-15T05:37:13;98133.91;;;10.18;89.96
69842;BME280;57138;51.326;-0.068;2022-11-15T05:39:39;98138.41;;;10.17;89.92
69842;BME280;57138;51.326;-0.068;2022-11-15T05:42:11;98138.31;;;10.24;90.28
69842;BME280;57138;51.326;-0.068;2022-11-15T05:44:40;98135.63;;;10.24;90.24
69842;BME280;57138;51.326;-0.068;2022-11-15T05:47:08;98125.75;;;10.24;90.02
69842;BME280;57138;51.326;-0.068;2022-11-15T05:49:36;98122.84;;;10.26;89.90
69842;BME280;57138;51.326;-0.068;2022-11-15T05:52:05;98130.38;;;10.29;89.83
69842;BME280;57138;51.326;-0.068;2022-11-15T05:54:33;98119.38;;;10.25;90.10
69842;BME280;57138;51.326;-0.068;2022-11-15T05:56:59;98136.19;;;10.26;90.00
69842;BME280;57138;51.326;-0.068;2022-11-15T05:59:25;98115.88;;;10.25;90.06
69842;BME280;57138;51.326;-0.068;2022-11-15T06:01:50;98104.38;;;10.24;90.09
69842;BME280;57138;51.326;-0.068;2022-11-15T06:04:16;98120.16;;;10.26;90.39
69842;BME280;57138;51.326;-0.068;2022-11-15T06:06:42;98109.41;;;10.21;90.51
69842;BME280;57138;51.326;-0.068;2022-11-15T06:09:07;98121.81;;;10.27;90.50
69842;BME280;57138;51.326;-0.068;2022-11-15T06:11:33;98112.63;;;10.23;90.51
69842;BME280;57138;51.326;-0.068;2022-11-15T06:13:58;98118.06;;;10.28;90.23
69842;BME280;57138;51.326;-0.068;2022-11-15T06:16:23;98116.78;;;10.31;90.13
69842;BME280;57138;51.326;-0.068;2022-11-15T06:18:49;98109.00;;;10.29;89.89
69842;BME280;57138;51.326;-0.068;2022-11-15T06:21:14;98106.91;;;10.31;89.75
69842;BME280;57138;51.326;-0.068;2022-11-15T06:23:39;98096.22;;;10.31;90.12
69842;BME280;57138;51.326;-0.068;2022-11-15T06:26:05;98090.44;;;10.34;90.22
69842;BME280;57138;51.326;-0.068;2022-11-15T06:28:32;98090.88;;;10.31;90.28
69842;BME280;57138;51.326;-0.068;2022-11-15T06:31:04;98099.97;;;10.30;91.41
69842;BME280;57138;51.326;-0.068;2022-11-15T06:33:30;98102.50;;;10.25;92.26
69842;BME280;57138;51.326;-0.068;2022-11-15T06:36:00;98097.66;;;10.22;92.68
69842;BME280;57138;51.326;-0.068;2022-11-15T06:38:26;98106.13;;;10.19;93.25
69842;BME280;57138;51.326;-0.068;2022-11-15T06:40:51;98093.25;;;10.16;93.53
69842;BME280;57138;51.326;-0.068;2022-11-15T06:43:17;98090.41;;;10.05;94.86
69842;BME280;57138;51.326;-0.068;2022-11-15T06:45:42;98090.97;;;10.07;95.38
69842;BME280;57138;51.326;-0.068;2022-11-15T06:48:07;98078.91;;;10.05;96.46
69842;BME280;57138;51.326;-0.068;2022-11-15T06:50:33;98075.91;;;10.01;96.45
69842;BME280;57138;51.326;-0.068;2022-11-15T06:53:03;98067.91;;;10.01;96.46
69842;BME280;57138;51.326;-0.068;2022-11-15T06:55:29;98065.69;;;9.98;97.04
69842;BME280;57138;51.326;-0.068;2022-11-15T06:57:54;98053.41;;;9.97;96.80
69842;BME280;57138;51.326;-0.068;2022-11-15T07:00:21;98062.47;;;9.96;97.75
69842;BME280;57138;51.326;-0.068;2022-11-15T07:02:48;98056.44;;;9.89;98.35
69842;BME280;57138;51.326;-0.068;2022-11-15T07:05:14;98063.41;;;9.90;98.41
69842;BME280;57138;51.326;-0.068;2022-11-15T07:07:39;98049.03;;;9.91;98.21
69842;BME280;57138;51.326;-0.068;2022-11-15T07:10:06;98049.50;;;9.88;98.76
69842;BME280;57138;51.326;-0.068;2022-11-15T07:12:32;98037.19;;;9.87;98.99
69842;BME280;57138;51.326;-0.068;2022-11-15T07:14:57;98040.91;;;9.86;99.12
69842;BME280;57138;51.326;-0.068;2022-11-15T07:17:26;98031.84;;;9.87;98.95
69842;BME280;57138;51.326;-0.068;2022-11-15T07:19:54;98025.84;;;9.80;99.69
69842;BME280;57138;51.326;-0.068;2022-11-15T07:22:20;98045.19;;;9.87;99.59
69842;BME280;57138;51.326;-0.068;2022-11-15T07:24:45;98030.69;;;9.83;99.95
69842;BME280;57138;51.326;-0.068;2022-11-15T07:27:10;98023.63;;;9.77;100.00
69842;BME280;57138;51.326;-0.068;2022-11-15T07:29:36;98031.19;;;9.80;100.00
69842;BME280;57138;51.326;-0.068;2022-11-15T07:32:01;98024.72;;;9.76;100.00
69842;BME280;57138;51.326;-0.068;2022-11-15T07:34:27;98031.66;;;9.77;100.00
69842;BME280;57138;51.326;-0.068;2022-11-15T07:36:52;98012.88;;;9.71;100.00
69842;BME280;57138;51.326;-0.068;2022-11-15T07:39:17;98024.34;;;9.72;100.00
69842;BME280;57138;51.326;-0.068;2022-11-15T07:41:43;98028.09;;;9.71;100.00
69842;BME280;57138;51.326;-0.068;2022-11-15T07:44:08;98018.22;;;9.71;100.00
69842;BME280;57138;51.326;-0.068;2022-11-15T07:46:35;98022.28;;;9.74;100.00
69842;BME280;57138;51.326;-0.068;2022-11-15T07:49:01;98007.22;;;9.68;100.00
69842;BME280;57138;51.326;-0.068;2022-11-15T07:51:26;98015.06;;;9.75;100.00
69842;BME280;57138;51.326;-0.068;2022-11-15T07:53:52;98030.03;;;9.76;100.00
69842;BME280;57138;51.326;-0.068;2022-11-15T07:56:17;98010.44;;;9.70;100.00
69842;BME280;57138;51.326;-0.068;2022-11-15T07:58:45;98000.81;;;9.69;100.00
69842;BME280;57138;51.326;-0.068;2022-11-15T08:01:13;97997.66;;;9.72;100.00
69842;BME280;57138;51.326;-0.068;2022-11-15T08:03:39;98007.53;;;9.71;100.00
69842;BME280;57138;51.326;-0.068;2022-11-15T08:06:04;97991.53;;;9.71;100.00
69842;BME280;57138;51.326;-0.068;2022-11-15T08:08:30;97989.41;;;9.74;100.00
69842;BME280;57138;51.326;-0.068;2022-11-15T08:10:57;98007.88;;;9.75;100.00
69842;BME280;57138;51.326;-0.068;2022-11-15T08:13:23;97990.25;;;9.74;100.00
69842;BME280;57138;51.326;-0.068;2022-11-15T08:15:49;97982.56;;;9.78;100.00
69842;BME280;57138;51.326;-0.068;2022-11-15T08:18:15;97982.81;;;9.76;100.00
69842;BME280;57138;51.326;-0.068;2022-11-15T08:20:45;97987.69;;;9.79;100.00
69842;BME280;57138;51.326;-0.068;2022-11-15T08:23:11;97969.16;;;9.73;100.00
69842;BME280;57138;51.326;-0.068;2022-11-15T08:25:41;97973.41;;;9.74;100.00
69842;BME280;57138;51.326;-0.068;2022-11-15T08:28:07;97975.97;;;9.80;100.00
69842;BME280;57138;51.326;-0.068;2022-11-15T08:30:36;97970.03;;;9.78;100.00
69842;BME280;57138;51.326;-0.068;2022-11-15T08:33:03;97974.41;;;9.84;100.00
69842;BME280;57138;51.326;-0.068;2022-11-15T08:35:28;97972.09;;;9.88;100.00
69842;BME280;57138;51.326;-0.068;2022-11-15T08:37:54;97961.41;;;9.88;100.00
69842;BME280;57138;51.326;-0.068;2022-11-15T08:40:20;97964.09;;;9.88;100.00
69842;BME280;57138;51.326;-0.068;2022-11-15T08:42:46;97965.69;;;9.89;100.00
69842;BME280;57138;51.326;-0.068;2022-11-15T08:45:12;97959.06;;;9.92;100.00
69842;BME280;57138;51.326;-0.068;2022-11-15T08:47:37;97952.47;;;9.94;100.00
69842;BME280;57138;51.326;-0.068;2022-11-15T08:50:03;97954.06;;;9.95;100.00
69842;BME280;57138;51.326;-0.068;2022-11-15T08:52:28;97956.97;;;9.94;100.00
69842;BME280;57138;51.326;-0.068;2022-11-15T08:54:54;97948.25;;;9.98;100.00
69842;BME280;57138;51.326;-0.068;2022-11-15T08:57:20;97935.13;;;9.97;100.00
69842;BME280;57138;51.326;-0.068;2022-11-15T08:59:45;97937.06;;;10.01;100.00
69842;BME280;57138;51.326;-0.068;2022-11-15T09:02:14;97934.88;;;9.98;100.00
69842;BME280;57138;51.326;-0.068;2022-11-15T09:04:43;97937.63;;;10.03;100.00
69842;BME280;57138;51.326;-0.068;2022-11-15T09:07:10;97913.13;;;10.06;100.00
69842;BME280;57138;51.326;-0.068;2022-11-15T09:09:35;97920.56;;;10.04;100.00
69842;BME280;57138;51.326;-0.068;2022-11-15T09:12:03;97895.50;;;10.05;100.00
69842;BME280;57138;51.326;-0.068;2022-11-15T09:14:29;97907.31;;;10.10;100.00
69842;BME280;57138;51.326;-0.068;2022-11-15T09:16:55;97909.19;;;10.09;100.00
69842;BME280;57138;51.326;-0.068;2022-11-15T09:19:20;97913.22;;;10.12;100.00
69842;BME280;57138;51.326;-0.068;2022-11-15T09:21:46;97902.06;;;10.15;100.00
69842;BME280;57138;51.326;-0.068;2022-11-15T09:24:11;97903.59;;;10.11;100.00
69842;BME280;57138;51.326;-0.068;2022-11-15T09:26:38;97889.19;;;10.12;100.00
69842;BME280;57138;51.326;-0.068;2022-11-15T09:29:06;97898.66;;;10.19;100.00
69842;BME280;57138;51.326;-0.068;2022-11-15T09:31:31;97879.06;;;10.14;100.00
69842;BME280;57138;51.326;-0.068;2022-11-15T09:33:57;97879.97;;;10.19;100.00
69842;BME280;57138;51.326;-0.068;2022-11-15T09:36:23;97866.53;;;10.14;100.00
69842;BME280;57138;51.326;-0.068;2022-11-15T09:38:52;97863.47;;;10.22;100.00
69842;BME280;57138;51.326;-0.068;2022-11-15T09:44:58;97862.25;;;10.30;100.00
69842;BME280;57138;51.326;-0.068;2022-11-15T09:50:07;97850.50;;;10.31;100.00
69842;BME280;57138;51.326;-0.068;2022-11-15T09:52:34;97844.69;;;10.34;100.00
69842;BME280;57138;51.326;-0.068;2022-11-15T09:55:02;97842.59;;;10.36;100.00
69842;BME280;57138;51.326;-0.068;2022-11-15T10:00:41;97839.19;;;10.41;100.00
69842;BME280;57138;51.326;-0.068;2022-11-15T10:03:14;97829.81;;;10.38;100.00
69842;BME280;57138;51.326;-0.068;2022-11-15T10:05:49;97843.72;;;10.40;100.00
69842;BME280;57138;51.326;-0.068;2022-11-15T10:10:50;97799.03;;;10.36;100.00
69842;BME280;57138;51.326;-0.068;2022-11-15T10:13:28;97811.66;;;10.40;100.00
69842;BME280;57138;51.326;-0.068;2022-11-15T10:21:37;97805.25;;;10.41;100.00
69842;BME280;57138;51.326;-0.068;2022-11-15T10:24:19;97799.69;;;10.43;100.00
69842;BME280;57138;51.326;-0.068;2022-11-15T10:26:48;97796.75;;;10.45;100.00
69842;BME280;57138;51.326;-0.068;2022-11-15T10:29:19;97794.63;;;10.47;100.00
69842;BME280;57138;51.326;-0.068;2022-11-15T10:31:45;97772.47;;;10.46;100.00
69842;BME280;57138;51.326;-0.068;2022-11-15T10:34:14;97785.09;;;10.51;100.00
69842;BME280;57138;51.326;-0.068;2022-11-15T10:36:45;97781.38;;;10.52;100.00
69842;BME280;57138;51.326;-0.068;2022-11-15T10:39:12;97770.44;;;10.53;100.00
69842;BME280;57138;51.326;-0.068;2022-11-15T10:41:42;97751.41;;;10.50;100.00
69842;BME280;57138;51.326;-0.068;2022-11-15T10:46:44;97760.00;;;10.52;100.00
69842;BME280;57138;51.326;-0.068;2022-11-15T10:49:16;97752.53;;;10.54;100.00
69842;BME280;57138;51.326;-0.068;2022-11-15T10:51:47;97738.28;;;10.48;100.00
69842;BME280;57138;51.326;-0.068;2022-11-15T10:54:34;97742.34;;;10.51;100.00
69842;BME280;57138;51.326;-0.068;2022-11-15T10:57:07;97733.28;;;10.52;100.00
69842;BME280;57138;51.326;-0.068;2022-11-15T10:59:36;97738.91;;;10.55;100.00
69842;BME280;57138;51.326;-0.068;2022-11-15T11:05:01;97717.75;;;10.49;100.00
69842;BME280;57138;51.326;-0.068;2022-11-15T11:07:29;97705.88;;;10.39;100.00
69842;BME280;57138;51.326;-0.068;2022-11-15T11:10:16;97705.72;;;10.51;100.00
69842;BME280;57138;51.326;-0.068;2022-11-15T11:12:42;97704.38;;;10.49;100.00
69842;BME280;57138;51.326;-0.068;2022-11-15T11:15:11;97689.41;;;10.48;100.00
69842;BME280;57138;51.326;-0.068;2022-11-15T11:34:44;97670.28;;;10.61;100.00
69842;BME280;57138;51.326;-0.068;2022-11-15T11:37:32;97672.97;;;10.61;100.00
69842;BME280;57138;51.326;-0.068;2022-11-15T11:43:01;97643.81;;;10.59;100.00
69842;BME280;57138;51.326;-0.068;2022-11-15T11:48:04;97637.19;;;10.62;100.00
69842;BME280;57138;51.326;-0.068;2022-11-15T11:50:36;97614.09;;;10.51;100.00
69842;BME280;57138;51.326;-0.068;2022-11-15T11:53:11;97631.34;;;10.65;100.00
69842;BME280;57138;51.326;-0.068;2022-11-15T11:55:52;97608.59;;;10.63;100.00
69842;BME280;57138;51.326;-0.068;2022-11-15T11:58:26;97611.59;;;10.66;100.00
69842;BME280;57138;51.326;-0.068;2022-11-15T12:01:16;97612.13;;;10.68;100.00
69842;BME280;57138;51.326;-0.068;2022-11-15T12:09:41;97597.75;;;10.74;100.00
69842;BME280;57138;51.326;-0.068;2022-11-15T12:14:56;97565.69;;;10.74;100.00
69842;BME280;57138;51.326;-0.068;2022-11-15T12:17:28;97549.88;;;10.68;100.00
69842;BME280;57138;51.326;-0.068;2022-11-15T12:20:04;97560.84;;;10.71;100.00
69842;BME280;57138;51.326;-0.068;2022-11-15T12:23:06;97562.84;;;10.86;100.00
69842;BME280;57138;51.326;-0.068;2022-11-15T12:26:08;97535.50;;;10.79;100.00
69842;BME280;57138;51.326;-0.068;2022-11-15T12:28:58;97528.25;;;10.74;100.00
69842;BME280;57138;51.326;-0.068;2022-11-15T12:34:02;97532.66;;;10.91;100.00
69842;BME280;57138;51.326;-0.068;2022-11-15T12:36:37;97539.59;;;10.87;100.00
69842;BME280;57138;51.326;-0.068;2022-11-15T12:39:07;97518.16;;;10.82;100.00
69842;BME280;57138;51.326;-0.068;2022-11-15T12:41:39;97536.41;;;10.90;100.00
69842;BME280;57138;51.326;-0.068;2022-11-15T12:44:11;97524.66;;;10.91;100.00
69842;BME280;57138;51.326;-0.068;2022-11-15T12:52:05;97491.53;;;10.97;100.00
69842;BME280;57138;51.326;-0.068;2022-11-15T12:59:51;97511.41;;;11.11;100.00
69842;BME280;57138;51.326;-0.068;2022-11-15T13:02:35;97520.19;;;11.02;100.00
69842;BME280;57138;51.326;-0.068;2022-11-15T13:20:18;97527.06;;;11.35;100.00
69842;BME280;57138;51.326;-0.068;2022-11-15T13:22:51;97523.59;;;11.40;100.00
69842;BME280;57138;51.326;-0.068;2022-11-15T13:30:55;97508.41;;;11.50;100.00
69842;BME280;57138;51.326;-0.068;2022-11-15T13:33:37;97499.06;;;11.53;98.46
69842;BME280;57138;51.326;-0.068;2022-11-15T13:36:14;97501.22;;;11.61;97.69
69842;BME280;57138;51.326;-0.068;2022-11-15T13:38:41;97524.00;;;11.74;97.75
69842;BME280;57138;51.326;-0.068;2022-11-15T13:41:24;97506.31;;;11.68;98.21
69842;BME280;57138;51.326;-0.068;2022-11-15T13:43:52;97515.16;;;11.68;97.46
69842;BME280;57138;51.326;-0.068;2022-11-15T13:46:32;97515.97;;;11.69;96.79
69842;BME280;57138;51.326;-0.068;2022-11-15T13:49:01;97532.53;;;11.66;96.21
69842;BME280;57138;51.326;-0.068;2022-11-15T13:51:43;97520.50;;;11.68;97.09
69842;BME280;57138;51.326;-0.068;2022-11-15T13:56:37;97524.00;;;11.74;96.66
69842;BME280;57138;51.326;-0.068;2022-11-15T13:59:20;97521.88;;;11.76;95.70
69842;BME280;57138;51.326;-0.068;2022-11-15T14:01:50;97525.31;;;11.72;94.37
69842;BME280;57138;51.326;-0.068;2022-11-15T14:04:20;97523.44;;;11.67;95.12
69842;BME280;57138;51.326;-0.068;2022-11-15T14:06:56;97537.59;;;11.62;95.26
69842;BME280;57138;51.326;-0.068;2022-11-15T14:09:56;97516.50;;;11.66;94.24
69842;BME280;57138;51.326;-0.068;2022-11-15T14:12:34;97520.41;;;11.48;92.58
69842;BME280;57138;51.326;-0.068;2022-11-15T14:15:31;97530.31;;;11.47;94.32
69842;BME280;57138;51.326;-0.068;2022-11-15T14:18:01;97531.09;;;11.43;93.63
69842;BME280;57138;51.326;-0.068;2022-11-15T14:20:32;97513.66;;;11.30;93.39
69842;BME280;57138;51.326;-0.068;2022-11-15T14:23:26;97525.38;;;11.24;93.11
69842;BME280;57138;51.326;-0.068;2022-11-15T14:25:57;97528.09;;;11.29;94.28
69842;BME280;57138;51.326;-0.068;2022-11-15T14:30:56;97535.06;;;11.30;94.04
69842;BME280;57138;51.326;-0.068;2022-11-15T14:33:27;97537.16;;;11.28;94.05
69842;BME280;57138;51.326;-0.068;2022-11-15T14:35:57;97530.75;;;11.24;94.41
69842;BME280;57138;51.326;-0.068;2022-11-15T14:38:26;97532.34;;;11.25;94.42
69842;BME280;57138;51.326;-0.068;2022-11-15T14:40:54;97533.44;;;11.29;94.28
69842;BME280;57138;51.326;-0.068;2022-11-15T14:43:22;97532.84;;;11.22;94.86
69842;BME280;57138;51.326;-0.068;2022-11-15T14:45:48;97537.16;;;11.23;95.07
69842;BME280;57138;51.326;-0.068;2022-11-15T14:48:14;97532.84;;;11.22;95.21
69842;BME280;57138;51.326;-0.068;2022-11-15T14:51:03;97541.44;;;11.24;95.43
69842;BME280;57138;51.326;-0.068;2022-11-15T14:53:37;97533.94;;;11.21;94.46
69842;BME280;57138;51.326;-0.068;2022-11-15T14:56:06;97547.31;;;11.26;95.40
69842;BME280;57138;51.326;-0.068;2022-11-15T14:59:02;97541.66;;;11.17;94.66
69842;BME280;57138;51.326;-0.068;2022-11-15T15:01:28;97543.25;;;11.18;94.95
69842;BME280;57138;51.326;-0.068;2022-11-15T15:03:54;97526.34;;;11.07;94.63
69842;BME280;57138;51.326;-0.068;2022-11-15T15:06:24;97529.56;;;11.09;95.19